createdAt,value
2023-03-08T00:01:55.097Z,2.89
2023-03-08T00:06:59.819Z,2.76
2023-03-08T00:12:03.163Z,2.53
2023-03-08T00:17:08.880Z,2.31
2023-03-08T00:22:13.690Z,2.49
2023-03-08T00:27:19.177Z,2.78
2023-03-08T00:32:26.087Z,3.12
2023-03-08T00:37:30.898Z,3.19
2023-03-08T00:42:36.581Z,4.02
2023-03-08T00:47:42.343Z,4.17
2023-03-08T00:52:47.073Z,4.36
2023-03-08T00:57:50.418Z,4.47
2023-03-08T01:02:56.526Z,4.50
2023-03-08T01:08:03.452Z,4.58
2023-03-08T01:13:07.687Z,4.19
2023-03-08T01:18:13.457Z,3.98
2023-03-08T01:23:18.232Z,3.33
2023-03-08T01:28:24.023Z,2.90
2023-03-08T01:33:27.518Z,2.93
2023-03-08T01:38:32.492Z,3.00
2023-03-08T01:43:38.621Z,3.14
2023-03-08T01:48:50.014Z,2.87
2023-03-08T01:53:58.425Z,3.04
2023-03-08T01:59:03.320Z,3.12
2023-03-08T02:04:07.834Z,3.23
2023-03-08T02:09:14.105Z,3.52
2023-03-08T02:14:17.472Z,3.74
2023-03-08T02:19:30.512Z,3.33
2023-03-08T02:24:37.553Z,3.28
2023-03-08T02:29:43.462Z,3.00
2023-03-08T02:34:49.296Z,2.87
2023-03-08T02:39:56.889Z,2.77
2023-03-08T02:45:03.219Z,2.59
2023-03-08T02:50:10.360Z,2.82
2023-03-08T02:55:15.166Z,2.56
2023-03-08T03:00:19.332Z,2.54
2023-03-08T03:05:25.508Z,3.21
2023-03-08T03:10:30.391Z,8.71
2023-03-08T03:15:39.355Z,5.34
2023-03-08T03:20:42.974Z,3.59
2023-03-08T03:25:47.779Z,3.70
2023-03-08T03:30:53.961Z,3.53
2023-03-08T03:35:57.542Z,3.70
2023-03-08T03:41:04.024Z,4.70
2023-03-08T03:46:10.183Z,5.19
2023-03-08T03:51:16.278Z,5.65
2023-03-08T03:56:26.999Z,8.07
2023-03-08T04:01:34.818Z,6.91
2023-03-08T04:06:50.473Z,7.15
2023-03-08T04:12:02.661Z,6.82
2023-03-08T04:17:07.290Z,7.18
2023-03-08T04:22:18.877Z,7.47
2023-03-08T04:27:46.775Z,7.70
2023-03-08T04:32:50.216Z,9.02
2023-03-08T04:37:53.785Z,9.20
2023-03-08T04:43:04.805Z,11.74
2023-03-08T04:48:13.757Z,10.56
2023-03-08T04:53:17.682Z,10.49
2023-03-08T04:58:22.769Z,11.52
2023-03-08T05:03:26.952Z,12.01
2023-03-08T05:08:30.599Z,12.62
2023-03-08T05:13:38.137Z,14.74
2023-03-08T05:18:43.593Z,13.99
2023-03-08T05:23:48.390Z,14.13
2023-03-08T05:28:55.820Z,19.38
2023-03-08T05:34:03.453Z,16.44
2023-03-08T05:39:12.342Z,14.15
2023-03-08T05:44:27.842Z,13.47
2023-03-08T05:49:35.278Z,14.14
2023-03-08T05:54:40.155Z,13.36
2023-03-08T05:59:49.501Z,13.73
2023-03-08T06:04:56.817Z,13.53
2023-03-08T06:10:02.794Z,13.91
2023-03-08T06:15:09.020Z,13.74
2023-03-08T06:20:16.945Z,13.77
2023-03-08T06:25:24.055Z,13.66
2023-03-08T06:30:29.243Z,13.90
2023-03-08T06:35:33.784Z,13.47
2023-03-08T06:40:39.034Z,13.33
2023-03-08T06:45:44.351Z,12.85
2023-03-08T06:50:50.136Z,12.41
2023-03-08T06:55:54.166Z,12.50
2023-03-08T07:01:04.289Z,12.59
2023-03-08T07:06:09.415Z,12.93
2023-03-08T07:11:12.817Z,13.08
2023-03-08T07:16:17.710Z,12.85
2023-03-08T07:21:21.260Z,13.44
2023-03-08T07:26:24.637Z,13.15
2023-03-08T07:31:32.500Z,12.60
2023-03-08T07:36:39.871Z,12.45
2023-03-08T07:41:43.304Z,13.16
2023-03-08T07:46:48.430Z,14.89
2023-03-08T07:51:53.276Z,14.52
2023-03-08T07:56:57.016Z,12.47
2023-03-08T08:02:01.759Z,12.62
2023-03-08T08:07:05.290Z,12.66
2023-03-08T08:12:10.947Z,11.37
2023-03-08T08:17:16.244Z,11.36
2023-03-08T08:22:19.659Z,11.29
2023-03-08T08:27:25.362Z,11.63
2023-03-08T08:32:33.799Z,11.02
2023-03-08T08:37:37.617Z,10.19
2023-03-08T08:42:43.461Z,10.02
2023-03-08T08:47:50.842Z,9.92
2023-03-08T08:52:54.345Z,9.10
2023-03-08T08:58:01.319Z,9.26
2023-03-08T09:03:08.388Z,9.35
2023-03-08T09:08:14.163Z,9.72
2023-03-08T09:13:19.662Z,9.65
2023-03-08T09:18:26.631Z,8.80
2023-03-08T09:23:30.085Z,8.21
2023-03-08T09:28:36.071Z,7.68
2023-03-08T09:33:44.854Z,7.75
2023-03-08T09:38:53.983Z,8.90
2023-03-08T09:44:05.595Z,11.64
2023-03-08T09:49:15.509Z,8.47
2023-03-08T09:54:24.772Z,8.28
2023-03-08T09:59:33.625Z,8.45
2023-03-08T10:05:06.032Z,8.18
2023-03-08T10:10:21.013Z,8.64
2023-03-08T10:15:32.055Z,7.90
2023-03-08T10:20:39.795Z,7.48
2023-03-08T10:25:43.447Z,7.61
2023-03-08T10:30:48.550Z,7.57
2023-03-08T10:35:57.773Z,7.61
2023-03-08T10:41:03.582Z,7.45
2023-03-08T10:46:12.934Z,7.41
2023-03-08T10:51:21.076Z,7.98
2023-03-08T10:56:27.636Z,7.89
2023-03-08T11:01:32.337Z,7.79
2023-03-08T11:06:39.524Z,7.94
2023-03-08T11:11:45.309Z,8.04
2023-03-08T11:17:03.579Z,7.63
2023-03-08T11:22:18.051Z,7.52
2023-03-08T11:27:34.519Z,7.21
2023-03-08T11:32:48.806Z,9.31
2023-03-08T11:38:01.303Z,7.12
2023-03-08T11:43:17.929Z,7.39
2023-03-08T11:48:39.662Z,10.20
2023-03-08T11:53:55.141Z,7.44
2023-03-08T11:59:07.325Z,6.89
2023-03-08T12:04:14.238Z,6.04
2023-03-08T12:09:28.729Z,6.26
2023-03-08T12:14:33.628Z,6.15
2023-03-08T12:19:43.615Z,6.44
2023-03-08T12:24:56.672Z,5.99
2023-03-08T12:30:06.557Z,5.45
2023-03-08T12:35:26.001Z,5.72
2023-03-08T12:40:47.194Z,5.16
2023-03-08T12:46:02.304Z,5.73
2023-03-08T12:51:21.301Z,6.15
2023-03-08T12:56:28.596Z,5.55
2023-03-08T13:01:40.343Z,5.56
2023-03-08T13:07:04.803Z,6.51
2023-03-08T13:12:21.640Z,6.40
2023-03-08T13:17:37.620Z,6.91
2023-03-08T13:22:47.013Z,9.05
2023-03-08T13:27:56.308Z,7.79
2023-03-08T13:33:01.656Z,5.95
2023-03-08T13:38:05.288Z,8.87
2023-03-08T13:43:15.180Z,6.52
2023-03-08T13:48:21.251Z,6.86
2023-03-08T13:53:26.364Z,7.17
2023-03-08T13:58:33.335Z,7.84
2023-03-08T14:03:41.187Z,8.06
2023-03-08T14:08:46.396Z,8.16
2023-03-08T14:13:52.194Z,8.59
2023-03-08T14:18:57.433Z,8.97
2023-03-08T14:24:06.302Z,8.32
2023-03-08T14:29:18.180Z,8.06
2023-03-08T14:34:27.573Z,7.69
2023-03-08T14:39:32.941Z,8.11
2023-03-08T14:44:36.830Z,34.86
2023-03-08T14:49:41.676Z,8.47
2023-03-08T14:54:45.214Z,8.60
2023-03-08T14:59:49.870Z,8.79
2023-03-08T15:04:54.708Z,9.09
2023-03-08T15:10:04.244Z,9.79
2023-03-08T15:15:13.284Z,9.88
2023-03-08T15:20:19.342Z,10.00
2023-03-08T15:25:27.110Z,10.49
2023-03-08T15:30:32.206Z,10.54
2023-03-08T15:35:37.263Z,10.47
2023-03-08T15:40:40.724Z,10.66
2023-03-08T15:45:47.062Z,10.53
2023-03-08T15:50:51.844Z,11.08
2023-03-08T15:55:55.220Z,12.27
2023-03-08T16:01:04.114Z,19.34
2023-03-08T16:06:11.882Z,15.34
2023-03-08T16:11:16.716Z,10.47
2023-03-08T16:16:21.462Z,11.38
2023-03-08T16:21:27.129Z,15.31
2023-03-08T16:26:30.791Z,22.72
2023-03-08T16:31:34.247Z,16.21
2023-03-08T16:36:41.456Z,12.01
2023-03-08T16:41:44.925Z,12.96
2023-03-08T16:46:51.013Z,26.79
2023-03-08T16:51:58.138Z,12.28
2023-03-08T16:57:13.184Z,11.45
2023-03-08T17:02:22.732Z,48.61
2023-03-08T17:07:30.061Z,14.63
2023-03-08T17:12:33.839Z,11.34
2023-03-08T17:17:40.149Z,12.68
2023-03-08T17:22:47.784Z,17.94
2023-03-08T17:27:52.053Z,14.38
2023-03-08T17:32:55.906Z,12.43
2023-03-08T17:38:01.073Z,13.22
2023-03-08T17:43:07.104Z,18.34
2023-03-08T17:48:11.365Z,27.60
2023-03-08T17:53:17.407Z,13.45
2023-03-08T17:58:23.578Z,13.83
2023-03-08T18:03:27.035Z,13.72
2023-03-08T18:08:31.949Z,13.82
2023-03-08T18:13:35.411Z,13.39
2023-03-08T18:18:38.953Z,13.65
2023-03-08T18:23:44.492Z,13.39
2023-03-08T18:28:50.575Z,19.39
2023-03-08T18:33:55.285Z,15.34
2023-03-08T18:39:04.601Z,15.80
2023-03-08T18:44:13.508Z,15.81
2023-03-08T18:49:20.191Z,15.11
2023-03-08T18:54:25.513Z,17.23
2023-03-08T18:59:29.174Z,19.83
2023-03-08T19:04:38.921Z,16.80
2023-03-08T19:09:45.894Z,17.76
2023-03-08T19:14:50.645Z,18.44
2023-03-08T19:19:54.087Z,21.68
2023-03-08T19:25:01.334Z,18.33
2023-03-08T19:30:05.034Z,19.60
2023-03-08T19:35:09.501Z,17.85
2023-03-08T19:40:14.882Z,18.90
2023-03-08T19:45:18.461Z,18.36
2023-03-08T19:50:21.984Z,17.62
2023-03-08T19:55:26.786Z,17.84
2023-03-08T20:00:30.239Z,18.41
2023-03-08T20:05:35.280Z,20.73
2023-03-08T20:10:40.618Z,20.43
2023-03-08T20:15:46.343Z,20.49
2023-03-08T20:20:50.249Z,21.38
2023-03-08T20:25:55.153Z,22.63
2023-03-08T20:30:59.190Z,24.73
2023-03-08T20:36:02.732Z,23.93
2023-03-08T20:41:09.723Z,21.54
2023-03-08T20:46:14.472Z,20.32
2023-03-08T20:51:19.223Z,19.02
2023-03-08T20:56:25.110Z,18.24
2023-03-08T21:01:31.048Z,17.85
2023-03-08T21:06:34.537Z,18.59
2023-03-08T21:11:39.353Z,20.48
2023-03-08T21:16:43.413Z,20.27
2023-03-08T21:21:51.156Z,20.56
2023-03-08T21:26:58.274Z,21.94
2023-03-08T21:32:01.784Z,25.40
2023-03-08T21:37:05.247Z,24.75
2023-03-08T21:42:10.176Z,24.10
2023-03-08T21:47:13.770Z,24.39
2023-03-08T21:52:17.344Z,23.59
2023-03-08T21:57:22.317Z,24.63
2023-03-08T22:02:28.209Z,24.43
2023-03-08T22:07:32.027Z,23.35
2023-03-08T22:12:37.251Z,21.96
2023-03-08T22:17:40.698Z,21.55
2023-03-08T22:22:48.831Z,21.64
2023-03-08T22:27:53.780Z,20.16
2023-03-08T22:32:57.190Z,20.39
2023-03-08T22:38:02.822Z,21.42
2023-03-08T22:43:07.564Z,23.40
2023-03-08T22:48:11.120Z,24.33
2023-03-08T22:53:14.496Z,26.93
2023-03-08T22:58:19.252Z,27.37
2023-03-08T23:03:25.388Z,27.95
2023-03-08T23:08:29.122Z,30.97
2023-03-08T23:13:34.852Z,34.18
2023-03-08T23:18:38.550Z,32.53
2023-03-08T23:23:42.876Z,29.87
2023-03-08T23:28:50.385Z,30.85
2023-03-08T23:33:54.060Z,60.99
2023-03-08T23:39:02.357Z,30.03
2023-03-08T23:44:07.329Z,29.32
2023-03-08T23:49:13.581Z,28.59
2023-03-08T23:54:19.125Z,27.87
2023-03-08T23:59:26.286Z,28.37
